2022年5月20日

时间 代码 天气 温度 能见度 乌云 METAR/SPECI
19:25
I
14 °C 10 km+ 700 ft 270°   270° 11 kt METAR EHDL 201725Z AUTO 27011KT 220V350 9999 FEW005 BKN007 BKN008 14/13 Q1014 GRN
18:55
M
14 °C 10 km+ 1.100 ft 310°   310° 8 kt METAR EHDL 201655Z AUTO 31008KT 240V040 9999 FEW006 SCT008 BKN011 14/13 Q1013 GRN
18:25
M
14 °C 10 km+ 1.600 ft 310°   310° 13 kt METAR EHDL 201625Z AUTO 31013KT 230V020 9999 FEW008 BKN016 OVC019 14/13 Q1013 REDZ WHT
17:55
I
15 °C 7 km 500 ft 290°   290° 10 kt METAR EHDL 201555Z AUTO 29010KT 240V020 7000 BR SCT004 BKN005 BKN007 15/14 Q1012 YLO
17:25
M
16 °C 6 km 1.600 ft 300°   300° 8 kt METAR EHDL 201525Z AUTO 30008KT 250V010 6000 BR FEW004 SCT006 BKN016 16/16 Q1011 REDZ YLO
16:55
I
18 °C 4,8 km 2.500 ft Var   Var 12 kt METAR EHDL 201455Z AUTO VRB12KT 4800 SHRA FEW007 SCT015CB BKN025 18/17 Q1011 GRN
16:25
M
17 °C 7 km 7.300 ft Var   Var 10 kt METAR EHDL 201425Z AUTO VRB10KT 7000 -SHRA FEW015CB SCT035 BKN073 17/15 Q1011 RETSRA WHT
15:55
V
18 °C 8 km 7.000 ft Var   Var 7 kt METAR EHDL 201355Z AUTO VRB07KT 8000 BR FEW015CB SCT064 BKN070 18/16 Q1012 BLU
15:25
V
16 °C 9 km 4.200 ft Var   Var 7 kt METAR EHDL 201325Z AUTO VRB07KT 9000 -SHRA SCT015CB SCT037 BKN042 16/15 Q1013 RERA WHT
14:55
M
18 °C 10 km+ 1.800 ft 090°   090° 6 kt METAR EHDL 201255Z AUTO 09006KT 020V150 9999 TSRA BKN018CB SCT051 BKN086 18/13 Q1013 WHT
14:25
V
19 °C 10 km+ 5.200 ft 080°   080° 9 kt METAR EHDL 201225Z AUTO 08009KT 030V180 9999 BKN052 BKN060 BKN071 19/12 Q1014 BLU
13:55
V
20 °C 10 km+ 5.600 ft Var   Var 10 kt METAR EHDL 201155Z AUTO VRB10KT 9999 BKN056 BKN062 OVC140 20/11 Q1015 BLU
13:25
V
20 °C 10 km+ 17.000 ft Var   Var 9 kt METAR EHDL 201125Z AUTO VRB09KT 9999 FEW081 OVC170 20/10 Q1015 BLU
12:55
M
20 °C 10 km+ 2.500 ft Var   Var 8 kt METAR EHDL 201055Z AUTO VRB08KT 9999 OVC025 20/11 Q1017 BLU
12:25
M
19 °C 10 km+ 2.800 ft 120°   120° 7 kt METAR EHDL 201025Z AUTO 12007KT 040V210 9999 OVC028 19/10 Q1018 BLU
11:55
V
19 °C 10 km+ 3.300 ft 110°   110° 6 kt METAR EHDL 200955Z AUTO 11006KT 050V210 9999 BKN033 OVC120 19/11 Q1018 BLU
11:25
V
19 °C 10 km+ 13.000 ft 080°   080° 5 kt METAR EHDL 200925Z AUTO 08005KT 010V170 9999 OVC130 19/10 Q1018 BLU
10:55
V
18 °C 10 km+ 13.000 ft Var   Var 5 kt METAR EHDL 200855Z AUTO VRB05KT 9999 OVC130 18/11 Q1019 BLU
10:25
V
18 °C 10 km+ 14.000 ft Var   Var 5 kt METAR EHDL 200825Z AUTO VRB05KT 9999 OVC140 18/10 Q1020 BLU
09:55
V
16 °C 10 km+ 14.000 ft 120°   120° 4 kt METAR EHDL 200755Z AUTO 12004KT 060V220 9999 OVC140 16/11 Q1020 BLU
09:25
V
16 °C 10 km+ 16.000 ft 120°   120° 5 kt METAR EHDL 200725Z AUTO 12005KT 050V210 9999 OVC160 16/12 Q1020 BLU
08:55
V
15 °C 10 km+ 18.000 ft 100°   100° 5 kt METAR EHDL 200655Z AUTO 10005KT 020V180 9999 OVC180 15/12 Q1021 BLU
08:25
V
14 °C 10 km+ 22.000 ft 110°   110° 6 kt METAR EHDL 200625Z AUTO 11006KT 020V190 9999 OVC220 14/11 Q1021 BLU
07:55
M
13 °C 6 km - Var   Var 2 kt METAR EHDL 200555Z AUTO VRB02KT 6000 BR SCT360 13/12 Q1021 WHT
07:25
M
11 °C 6 km 20.000 ft 140°   140° 3 kt METAR EHDL 200525Z AUTO 14003KT 080V230 6000 BR BKN200 OVC370 11/11 Q1021 WHT
06:55
M
10 °C 6 km 24.000 ft 120°   120° 3 kt METAR EHDL 200455Z AUTO 12003KT 080V160 6000 BR BKN240 10/09 Q1021 WHT
06:25
M
7 °C 7 km 15.000 ft 080°   080° 3 kt METAR EHDL 200425Z AUTO 08003KT 040V140 7000 BR BKN150 BKN260 OVC330 07/07 Q1021 WHT
05:55
V
7 °C 10 km+ 32.000 ft 110°   110° 4 kt METAR EHDL 200355Z AUTO 11004KT 140V210 9999 OVC320 07/07 Q1021 BLU
05:25
V
7 °C 8 km 31.000 ft 100°   100° 3 kt METAR EHDL 200325Z AUTO 10003KT 8000 BR OVC310 07/07 Q1021 BLU
04:55
L
7 °C 700 m 31.000 ft 190°   190° 2 kt METAR EHDL 200255Z AUTO 19002KT 0700 FG OVC310 07/07 Q1021 RED
04:25
L
8 °C 350 m - 150°   150° 1 kt METAR EHDL 200225Z AUTO 15001KT 0350 FG OVC000 08/07 Q1021 RED
03:55
L
8 °C 300 m - 130°   130° 1 kt METAR EHDL 200155Z AUTO 13001KT 0300 FG OVC000 08/08 Q1021 RED
03:25
L
9 °C 550 m - 360°   360° 1 kt METAR EHDL 200125Z AUTO 36001KT 0550 FG OVC000 09/08 Q1022 RED
02:55
L
9 °C 500 m - 040°   040° 1 kt METAR EHDL 200055Z AUTO 04001KT 0500 FG OVC000 09/08 Q1022 RED
02:25
L
10 °C 250 m 32.000 ft 010°   010° 1 kt METAR EHDL 200025Z AUTO 01001KT 0250 FG SCT000 OVC320 10/09 Q1022 RED
01:55
I
10 °C 1,5 km 33.000 ft Var   Var 1 kt METAR EHDL 192355Z AUTO VRB01KT 1500 BR OVC330 10/10 Q1022 AMB
01:25
M
11 °C 6 km 31.000 ft Var   Var 2 kt METAR EHDL 192325Z AUTO VRB02KT 6000 BR OVC310 11/10 Q1021 WHT
00:55
M
11 °C 7 km 32.000 ft Var   Var 2 kt METAR EHDL 192255Z AUTO VRB02KT 7000 BR OVC320 11/11 Q1021 WHT
00:25
M
12 °C 6 km - 260°   260° 3 kt METAR EHDL 192225Z AUTO 26003KT 220V300 6000 BR NCD 12/11 Q1021 WHT

2022年5月19日

时间 代码 天气 温度 能见度 乌云 METAR/SPECI
23:55
M
12 °C 6 km 35.000 ft 270°   270° 5 kt METAR EHDL 192155Z AUTO 27005KT 230V330 6000 BR BKN350 12/11 Q1021 WHT
23:25
M
13 °C 5 km - 260°   260° 5 kt METAR EHDL 192125Z AUTO 26005KT 220V310 5000 BR NCD 13/12 Q1021 WHT
22:55
M
13 °C 7 km - 280°   280° 5 kt METAR EHDL 192055Z AUTO 28005KT 240V320 7000 BR NCD 13/12 Q1021 WHT
22:25
V
14 °C 10 km+ - 270°   270° 6 kt METAR EHDL 192025Z AUTO 27006KT 240V320 9999 NCD 14/13 Q1021 BLU
21:55
V
15 °C 10 km+ 25.000 ft 280°   280° 5 kt METAR EHDL 191955Z AUTO 28005KT 240V360 9999 OVC250 15/13 Q1020 BLU
21:25
V
16 °C 10 km+ 29.000 ft 280°   280° 8 kt METAR EHDL 191925Z AUTO 28008KT 230V340 9999 OVC290 16/13 Q1020 BLU
20:55
M
17 °C 10 km+ 1.700 ft 290°   290° 9 kt METAR EHDL 191855Z AUTO 29009KT 230V330 9999 BKN017 OVC021 17/14 Q1020 WHT
20:25
M
18 °C 10 km+ 1.600 ft 300°   300° 10 kt METAR EHDL 191825Z AUTO 30010KT 240V360 9999 BKN016 BKN024 18/14 Q1020 WHT
19:55
M
19 °C 10 km+ 1.900 ft 280°   280° 12 kt METAR EHDL 191755Z AUTO 28012KT 220V010 9999 BKN019 OVC023 19/14 Q1019 WHT
19:25
V
20 °C 10 km+ - 270°   270° 13 kt METAR EHDL 191725Z AUTO 27013KT 220V330 9999 FEW045 SCT050 20/15 Q1018 BLU
18:55
M
19 °C 10 km+ 1.800 ft 190°   190° 6 kt METAR EHDL 191655Z AUTO 19006KT 140V240 9999 BKN018 BKN021 BKN025 19/17 Q1018 WHT
18:25
V
20 °C 10 km+ 3.600 ft 190°   190° 7 kt METAR EHDL 191625Z AUTO 19007KT 120V240 9999 BKN036 OVC040 20/17 Q1018 BLU
17:55
V
20 °C 10 km+ 5.800 ft 190°   190° 6 kt METAR EHDL 191555Z AUTO 19006KT 110V250 9999 FEW011 BKN058 BKN067 20/17 Q1018 BLU
17:25
V
20 °C 10 km+ 14.000 ft Var   Var 3 kt METAR EHDL 191525Z AUTO VRB03KT 9999 FEW010 BKN140 OVC330 20/17 Q1017 BLU
16:55
V
19 °C 10 km+ 24.000 ft Var   Var 5 kt METAR EHDL 191455Z AUTO VRB05KT 9999 FEW008 BKN240 OVC340 19/18 Q1017 BLU
16:25
V
18 °C 10 km+ 11.000 ft Var   Var 3 kt METAR EHDL 191425Z AUTO VRB03KT 9999 OVC110 18/17 Q1017 BLU
15:55
V
17 °C 10 km+ 10.000 ft 350°   350° 5 kt METAR EHDL 191355Z AUTO 35005KT 310V050 9999 FEW015CB OVC100 17/17 Q1017 RETS BLU
15:25
M
16 °C 10 km+ 1.500 ft 010°   010° 9 kt METAR EHDL 191325Z AUTO 01009KT 330V060 9999 -SHRA BKN015CB OVC095 16/16 Q1017 RETSRA WHT
14:55
M
16 °C 7 km 1.500 ft 290°   290° 14 26 kt METAR EHDL 191255Z AUTO 29014G26KT 240V360 7000 TSRA BKN015CB SCT045 BKN056 16/16 Q1019 REUP WHT
14:25
V
21 °C 10 km+ 5.800 ft 070°   070° 5 kt METAR EHDL 191225Z AUTO 07005KT 030V170 9999 TSRA FEW015CB OVC058 21/18 Q1015 BLU
13:55
I
25 °C 3,8 km 6.900 ft 150°   150° 5 kt METAR EHDL 191155Z AUTO 15005KT 080V230 3800 +RA FEW035CB SCT062 BKN069 25/16 Q1016 GRN
13:25
V
26 °C 10 km+ 7.500 ft Var   Var 5 kt METAR EHDL 191125Z AUTO VRB05KT 9999 FEW069 BKN075 BKN083 26/14 Q1016 BLU
12:55
V
26 °C 10 km+ 8.100 ft 120°   120° 5 kt METAR EHDL 191055Z AUTO 12005KT 010V180 9999 SCT066 BKN081 BKN091 26/14 Q1016 BLU
12:25
V
25 °C 10 km+ 13.000 ft Var   Var 4 kt METAR EHDL 191025Z AUTO VRB04KT 9999 FEW069 OVC130 25/15 Q1016 BLU
11:55
V
25 °C 10 km+ 15.000 ft Var   Var 4 kt METAR EHDL 190955Z AUTO VRB04KT 9999 SCT071 SCT079 OVC150 25/14 Q1017 BLU
11:25
V
24 °C 10 km+ 17.000 ft 150°   150° 6 kt METAR EHDL 190925Z AUTO 15006KT 060V190 9999 OVC170 24/14 Q1016 BLU
10:55
V
24 °C 10 km+ 10.000 ft 140°   140° 6 kt METAR EHDL 190855Z AUTO 14006KT 060V220 9999 SCT083 SCT090 BKN100 24/14 Q1017 BLU
10:25
V
22 °C 10 km+ 16.000 ft Var   Var 3 kt METAR EHDL 190825Z AUTO VRB03KT 9999 OVC160 22/15 Q1017 BLU
09:55
V
20 °C 10 km+ 16.000 ft Var   Var 2 kt METAR EHDL 190755Z AUTO VRB02KT 9999 OVC160 20/16 Q1017 BLU
09:25
V
20 °C 10 km+ 14.000 ft 300°   300° 5 kt METAR EHDL 190725Z AUTO 30005KT 240V350 9999 OVC140 20/15 Q1017 BLU
08:55
V
20 °C 10 km+ 13.000 ft 130°   130° 4 kt METAR EHDL 190655Z AUTO 13004KT 090V190 9999 OVC130 20/15 Q1016 BLU
08:25
V
19 °C 10 km+ 9.400 ft Var   Var 4 kt METAR EHDL 190625Z AUTO VRB04KT 9999 -RA FEW021CB SCT088 BKN094 19/14 Q1017 BLU
07:55
V
19 °C 10 km+ 7.900 ft 280°   280° 7 kt METAR EHDL 190555Z AUTO 28007KT 210V330 9999 SCT073 BKN079 OVC092 19/14 Q1018 BLU
07:25
V
19 °C 10 km+ 8.000 ft 290°   290° 5 kt METAR EHDL 190525Z AUTO 29005KT 230V330 9999 FEW022CB SCT074 OVC080 19/14 Q1018 BLU
06:55
V
19 °C 10 km+ 9.400 ft 260°   260° 4 kt METAR EHDL 190455Z AUTO 26004KT 230V320 9999 BKN094 BKN099 OVC100 19/13 Q1018 BLU
06:25
V
20 °C 10 km+ 9.000 ft 250°   250° 8 kt METAR EHDL 190425Z AUTO 25008KT 180V330 9999 OVC090 20/14 Q1018 BLU
05:55
V
19 °C 10 km+ 9.500 ft 230°   230° 9 kt METAR EHDL 190355Z AUTO 23009KT 160V290 9999 SCT090 BKN095 OVC100 19/14 Q1018 BLU
05:25
V
18 °C 10 km+ 10.000 ft 140°   140° 5 kt METAR EHDL 190325Z AUTO 14005KT 100V200 9999 OVC100 18/15 Q1016 BLU
04:55
V
18 °C 10 km+ 23.000 ft 140°   140° 6 kt METAR EHDL 190255Z AUTO 14006KT 060V190 9999 OVC230 18/15 Q1016 BLU
04:25
V
19 °C 10 km+ 23.000 ft 110°   110° 6 kt METAR EHDL 190225Z AUTO 11006KT 030V200 9999 OVC230 19/15 Q1016 BLU
03:55
V
18 °C 10 km+ 24.000 ft 110°   110° 6 kt METAR EHDL 190155Z AUTO 11006KT 030V200 9999 OVC240 18/15 Q1017 BLU
03:25
V
19 °C 10 km+ 25.000 ft 100°   100° 5 kt METAR EHDL 190125Z AUTO 10005KT 360V160 9999 OVC250 19/15 Q1017 BLU
02:55
V
19 °C 10 km+ 25.000 ft 100°   100° 5 kt METAR EHDL 190055Z AUTO 10005KT 360V160 9999 OVC250 19/15 Q1017 BLU
02:25
V
18 °C 10 km+ 24.000 ft Var   Var 2 kt METAR EHDL 190025Z AUTO VRB02KT 9999 OVC240 18/15 Q1018 BLU
01:55
V
17 °C 10 km+ 26.000 ft Var   Var 3 kt METAR EHDL 182355Z AUTO VRB03KT 9999 OVC260 17/14 Q1018 BLU
01:25
V
18 °C 10 km+ 26.000 ft 140°   140° 1 kt METAR EHDL 182325Z AUTO 14001KT 9999 OVC260 18/14 Q1018 BLU
00:55
V
18 °C 10 km+ 25.000 ft 090°   090° 4 kt METAR EHDL 182255Z AUTO 09004KT 350V150 9999 OVC250 18/14 Q1018 BLU
00:25
V
18 °C 10 km+ 7.600 ft 080°   080° 3 kt METAR EHDL 182225Z AUTO 08003KT 340V130 9999 BKN076 BKN085 BKN095 18/14 Q1019 BLU

2022年5月18日

时间 代码 天气 温度 能见度 乌云 METAR/SPECI
23:55
V
18 °C 10 km+ 6.800 ft 080°   080° 3 kt METAR EHDL 182155Z AUTO 08003KT 360V120 9999 BKN068 OVC076 18/14 Q1019 BLU
23:25
V
18 °C 10 km+ 7.500 ft Var   Var 2 kt METAR EHDL 182125Z AUTO VRB02KT 9999 FEW070 BKN075 BKN081 18/14 Q1019 BLU
22:55
V
19 °C 10 km+ 7.700 ft Var   Var 2 kt METAR EHDL 182055Z AUTO VRB02KT 9999 SCT070 BKN077 BKN082 19/14 Q1020 BLU
22:25
V
19 °C 10 km+ 6.800 ft 340°   340° 5 kt METAR EHDL 182025Z AUTO 34005KT 310V020 9999 OVC068 19/15 Q1020 BLU
21:55
V
20 °C 10 km+ 7.200 ft 360°   360° 4 kt METAR EHDL 181955Z AUTO 36004KT 9999 BKN072 BKN080 BKN098 20/15 Q1020 BLU
21:25
V
20 °C 10 km+ 10.000 ft 340°   340° 4 kt METAR EHDL 181925Z AUTO 34004KT 9999 FEW073 SCT082 BKN100 20/15 Q1019 BLU
20:55
V
21 °C 10 km+ 26.000 ft 010°   010° 5 kt METAR EHDL 181855Z AUTO 01005KT 340V040 9999 FEW100 OVC260 21/15 Q1020 BLU
20:25
V
22 °C 10 km+ 26.000 ft 020°   020° 6 kt METAR EHDL 181825Z AUTO 02006KT 330V050 9999 OVC260 22/15 Q1020 BLU
19:55
V
23 °C 10 km+ 26.000 ft 360°   360° 9 kt METAR EHDL 181755Z AUTO 36009KT 320V040 9999 FEW100 OVC260 23/16 Q1020 BLU
19:25
V
24 °C 10 km+ 27.000 ft 340°   340° 8 kt METAR EHDL 181725Z AUTO 34008KT 310V040 9999 OVC270 24/16 Q1020 BLU
18:55
V
25 °C 10 km+ 27.000 ft 290°   290° 5 kt METAR EHDL 181655Z AUTO 29005KT 230V340 9999 FEW098 OVC270 25/14 Q1020 BLU
18:25
V
26 °C 10 km+ 27.000 ft Var   Var 5 kt METAR EHDL 181625Z AUTO VRB05KT 9999 SCT099 OVC270 26/15 Q1020 BLU
17:55
V
25 °C 10 km+ 8.300 ft 260°   260° 6 kt METAR EHDL 181555Z AUTO 26006KT 170V310 9999 SCT071 SCT077 BKN083 25/15 Q1020 BLU
17:25
V
25 °C 10 km+ 6.900 ft 240°   240° 6 kt METAR EHDL 181525Z AUTO 24006KT 180V310 9999 OVC069 25/14 Q1020 BLU
16:55
V
25 °C 10 km+ 8.400 ft 250°   250° 5 kt METAR EHDL 181455Z AUTO 25005KT 180V330 9999 SCT078 OVC084 25/15 Q1020 BLU
较旧的数据

下载我们的应用程序

在您的手机和平板电脑上轻松访问所有航空天气。
有许多网站上没有的功能,如离线支持和个人机场列表。

Studio Eveline

Benalmádena
España

我们和第三方通过cookies跟踪您在我们网站上的上网行为。如果您继续,我们认为您同意我们的cookie政策。 了解更多